Time;durP1;ratioP1;P1;durP2;ratioP2;P2;SDS_P1;SDS_P2;PMS_P1;PMS_P2;Temp;Humidity;BMP_temperature;BMP_pressure;BME280_temperature;BME280_humidity;BME280_pressure;Samples;Min_cycle;Max_cycle;Signal;HPM_P1;HPM_P2
2022/05/26 00:00:27;;;;;;;27.40;12.15;;;13.00;99.90;;;;;;5034370;28;20054;-83
2022/05/26 00:02:53;;;;;;;19.00;11.13;;;12.90;99.90;;;;;;5035190;28;20055;-84
2022/05/26 00:05:19;;;;;;;19.02;9.85;;;13.00;99.90;;;;;;5034917;28;20057;-84
2022/05/26 00:07:44;;;;;;;17.67;11.13;;;13.50;99.90;;;;;;5034173;28;20044;-84
2022/05/26 00:10:11;;;;;;;15.00;10.07;;;13.00;99.90;;;;;;5034669;28;20073;-83
2022/05/26 00:12:37;;;;;;;20.90;10.25;;;12.90;99.90;;;;;;5033628;28;20422;-83
2022/05/26 00:15:03;;;;;;;19.50;10.88;;;12.90;99.90;;;;;;5032474;28;20045;-82
2022/05/26 00:17:29;;;;;;;19.23;9.40;;;13.00;99.90;;;;;;5034957;28;20050;-84
2022/05/26 00:19:55;;;;;;;19.13;10.60;;;12.90;99.90;;;;;;5034715;28;20044;-84
2022/05/26 00:22:20;;;;;;;20.67;8.35;;;13.00;99.90;;;;;;5034833;28;20121;-83
2022/05/26 00:24:46;;;;;;;18.70;9.25;;;13.00;99.90;;;;;;5034284;28;20493;-83
2022/05/26 00:27:12;;;;;;;22.63;10.90;;;13.00;99.90;;;;;;5034488;28;20064;-84
2022/05/26 00:29:38;;;;;;;20.73;9.48;;;13.00;99.90;;;;;;5034366;28;20029;-83
2022/05/26 00:32:05;;;;;;;20.10;9.32;;;13.00;99.90;;;;;;5034441;28;20099;-83
2022/05/26 00:34:30;;;;;;;26.80;10.40;;;13.00;99.90;;;;;;5032339;28;20121;-83
2022/05/26 00:36:56;;;;;;;29.98;11.57;;;13.00;99.90;;;;;;5034287;28;20084;-84
2022/05/26 00:39:23;;;;;;;26.00;10.70;;;12.90;99.90;;;;;;5033978;28;20499;-84
2022/05/26 00:41:53;;;;;;;25.80;12.00;;;12.90;99.90;;;;;;5033649;28;20087;-84
2022/05/26 00:44:19;;;;;;;34.17;11.35;;;12.90;99.90;;;;;;5033899;28;20067;-84
2022/05/26 00:46:55;;;;;;;44.45;11.77;;;12.90;99.90;;;;;;5033670;28;20045;-84
2022/05/26 00:49:36;;;;;;;35.78;12.70;;;13.00;99.90;;;;;;5034519;28;20183;-84
2022/05/26 00:52:03;;;;;;;34.30;12.40;;;12.90;99.90;;;;;;5033893;28;20493;-84
2022/05/26 00:54:30;;;;;;;38.03;13.05;;;12.90;99.90;;;;;;5033342;28;20045;-84
2022/05/26 00:57:04;;;;;;;44.92;14.65;;;12.90;99.90;;;;;;5033574;28;20068;-84
2022/05/26 00:59:40;;;;;;;36.50;13.05;;;13.40;99.90;;;;;;5033713;28;20129;-83
2022/05/26 01:02:07;;;;;;;43.72;12.88;;;13.00;99.90;;;;;;5033728;28;20405;-84
2022/05/26 01:04:41;;;;;;;39.17;14.20;;;13.10;99.90;;;;;;5034209;28;20041;-84
2022/05/26 01:07:10;;;;;;;46.75;15.55;;;13.10;99.90;;;;;;5034756;28;20545;-84
2022/05/26 01:09:36;;;;;;;37.42;14.43;;;13.10;99.90;;;;;;5034366;28;20041;-84
2022/05/26 01:12:01;;;;;;;45.05;14.13;;;13.10;99.90;;;;;;5034294;28;20041;-84
2022/05/26 01:14:31;;;;;;;35.70;14.05;;;13.10;99.90;;;;;;5033920;28;20081;-84
2022/05/26 01:17:16;;;;;;;40.25;15.18;;;13.20;99.90;;;;;;5033991;28;20045;-84
2022/05/26 01:20:09;;;;;;;39.00;14.20;;;13.20;99.90;;;;;;5034186;28;20041;-84
2022/05/26 01:23:11;;;;;;;45.35;15.88;;;13.20;99.90;;;;;;5034118;28;20049;-84
2022/05/26 01:26:11;;;;;;;48.50;15.95;;;13.20;99.90;;;;;;5034352;28;20506;-83
2022/05/26 01:28:57;;;;;;;49.42;15.35;;;13.30;99.90;;;;;;5034931;28;20068;-84
2022/05/26 01:31:55;;;;;;;52.75;16.27;;;13.30;99.90;;;;;;5034205;28;20099;-83
2022/05/26 01:34:58;;;;;;;39.03;13.77;;;13.30;99.90;;;;;;5033474;28;20049;-84
2022/05/26 01:37:26;;;;;;;46.60;15.48;;;13.20;99.90;;;;;;5033385;28;20084;-83
2022/05/26 01:40:11;;;;;;;35.78;14.10;;;13.20;99.90;;;;;;5033792;28;20107;-84
2022/05/26 01:42:49;;;;;;;46.88;15.00;;;13.10;99.90;;;;;;5034124;28;20049;-85
2022/05/26 01:45:31;;;;;;;44.95;14.85;;;13.10;99.90;;;;;;5049396;28;20045;-84
2022/05/26 01:48:00;;;;;;;43.78;14.13;;;13.10;99.90;;;;;;5034391;28;20068;-85
2022/05/26 01:50:53;;;;;;;38.30;14.13;;;13.20;99.90;;;;;;5034375;28;20608;-84
2022/05/26 01:53:42;;;;;;;51.05;15.35;;;13.00;99.90;;;;;;5033627;28;20125;-85
2022/05/26 01:56:11;;;;;;;50.10;13.73;;;12.90;99.90;;;;;;5032912;28;20825;-84
2022/05/26 01:58:41;;;;;;;49.67;15.90;;;12.90;99.90;;;;;;5033031;28;20397;-85
2022/05/26 02:01:12;;;;;;;47.13;13.63;;;12.90;99.90;;;;;;5032936;28;20064;-85
2022/05/26 02:03:40;;;;;;;41.33;13.18;;;13.00;99.90;;;;;;5033102;28;20513;-85
2022/05/26 02:06:38;;;;;;;48.63;13.98;;;13.00;99.90;;;;;;5033478;28;20041;-85
2022/05/26 02:09:10;;;;;;;46.08;13.40;;;13.00;99.90;;;;;;5032270;28;20405;-85
2022/05/26 02:11:44;;;;;;;53.97;16.50;;;13.00;99.90;;;;;;5036402;28;20371;-85
2022/05/26 02:14:14;;;;;;;38.45;12.15;;;13.10;99.90;;;;;;5036560;28;20067;-84
2022/05/26 02:16:42;;;;;;;58.63;14.30;;;13.10;99.90;;;;;;5036173;28;20053;-84
2022/05/26 02:19:21;;;;;;;41.92;13.57;;;13.10;99.90;;;;;;5036735;28;20042;-85
2022/05/26 02:21:49;;;;;;;47.03;12.50;;;13.10;99.90;;;;;;5036606;28;20568;-85
2022/05/26 02:24:33;;;;;;;51.83;12.57;;;13.00;99.90;;;;;;5036780;28;20073;-85
2022/05/26 02:26:59;;;;;;;51.92;12.70;;;13.00;99.90;;;;;;5037096;28;20086;-84
2022/05/26 02:32:11;;;;;;;45.47;11.50;;;13.00;99.90;;;;;;5037005;28;20072;-84
2022/05/26 02:34:40;;;;;;;41.38;11.20;;;13.00;99.90;;;;;;5037454;28;20042;-85
2022/05/26 02:37:08;;;;;;;51.45;11.40;;;13.00;99.90;;;;;;5037051;28;20042;-84
2022/05/26 02:39:35;;;;;;;39.83;10.27;;;13.00;99.90;;;;;;5036846;28;20033;-84
2022/05/26 02:42:01;;;;;;;44.45;11.95;;;13.00;99.90;;;;;;5036866;28;20044;-84
2022/05/26 02:44:30;;;;;;;50.35;11.65;;;13.00;99.90;;;;;;5036939;28;20044;-84
2022/05/26 02:47:20;;;;;;;38.17;10.13;;;13.00;99.90;;;;;;5036849;28;20112;-84
2022/05/26 02:49:54;;;;;;;47.10;12.55;;;13.00;99.90;;;;;;5036097;28;20081;-84
2022/05/26 02:52:29;;;;;;;42.08;11.43;;;12.90;99.90;;;;;;5036136;28;20104;-83
2022/05/26 02:55:14;;;;;;;36.38;11.27;;;12.80;99.90;;;;;;5036199;28;20405;-84
2022/05/26 02:57:50;;;;;;;35.33;10.18;;;12.80;99.90;;;;;;5036233;28;20057;-84
2022/05/26 03:00:28;;;;;;;40.22;11.57;;;12.80;99.90;;;;;;5036274;28;20098;-84
2022/05/26 03:03:03;;;;;;;39.95;11.95;;;12.60;99.90;;;;;;5035998;28;20544;-84
2022/05/26 03:05:35;;;;;;;46.95;12.02;;;12.50;99.90;;;;;;5037192;28;20069;-84
2022/05/26 03:08:03;;;;;;;51.55;12.18;;;12.50;99.90;;;;;;5037434;28;20132;-83
2022/05/26 03:10:31;;;;;;;43.75;10.48;;;12.50;99.90;;;;;;5037499;28;20038;-83
2022/05/26 03:13:01;;;;;;;47.75;9.77;;;12.60;99.90;;;;;;5052752;28;20111;-84
2022/05/26 03:15:29;;;;;;;52.42;13.77;;;12.60;99.90;;;;;;5037759;28;20128;-84
2022/05/26 03:17:54;;;;;;;48.55;10.07;;;12.60;99.90;;;;;;5036853;28;20136;-84
2022/05/26 03:20:20;;;;;;;45.63;12.23;;;12.60;99.90;;;;;;5037468;28;20077;-84
2022/05/26 03:22:45;;;;;;;50.55;10.50;;;12.50;99.90;;;;;;5037370;28;20103;-83
2022/05/26 03:25:11;;;;;;;50.50;11.05;;;12.50;99.90;;;;;;5037012;28;20465;-84
2022/05/26 03:27:37;;;;;;;41.45;10.55;;;12.50;99.90;;;;;;5035995;28;20046;-82
2022/05/26 03:30:03;;;;;;;42.08;11.73;;;12.50;99.90;;;;;;5036756;28;20038;-83
2022/05/26 03:32:29;;;;;;;51.80;11.15;;;12.50;99.90;;;;;;5052821;28;20045;-83
2022/05/26 03:43:09;;;;;;;44.30;10.05;;;12.90;99.90;;;;;;5036776;28;20049;-83
2022/05/26 03:45:36;;;;;;;28.45;7.30;;;12.50;99.90;;;;;;5036248;28;20103;-83
2022/05/26 03:48:03;;;;;;;39.40;7.78;;;12.40;99.90;;;;;;5036793;28;20502;-84
2022/05/26 03:50:29;;;;;;;31.08;7.57;;;12.30;99.90;;;;;;5034785;28;20045;-84
2022/05/26 03:52:55;;;;;;;32.58;7.43;;;12.20;99.90;;;;;;5036568;28;20426;-83
2022/05/26 03:55:22;;;;;;;30.88;7.13;;;12.20;99.90;;;;;;5035927;28;20059;-84
2022/05/26 03:57:48;;;;;;;25.08;7.07;;;12.20;99.90;;;;;;5036246;28;20051;-84
2022/05/26 04:00:16;;;;;;;22.65;4.95;;;12.20;99.90;;;;;;5035807;28;20502;-84
2022/05/26 04:02:42;;;;;;;24.80;5.45;;;12.10;99.90;;;;;;5036039;28;20045;-84
2022/05/26 04:05:10;;;;;;;25.77;5.38;;;12.20;99.90;;;;;;5036146;28;20072;-84
2022/05/26 04:07:35;;;;;;;24.20;5.32;;;12.20;99.90;;;;;;5035537;28;20149;-84
2022/05/26 04:10:03;;;;;;;17.83;4.75;;;12.20;99.90;;;;;;5035146;28;20076;-83
2022/05/26 04:12:29;;;;;;;22.33;5.80;;;12.20;99.90;;;;;;5035507;28;20091;-83
2022/05/26 04:14:54;;;;;;;18.67;4.60;;;12.20;99.90;;;;;;5035270;28;20045;-83
2022/05/26 04:17:20;;;;;;;14.98;3.92;;;12.20;99.90;;;;;;5035349;28;20528;-84
2022/05/26 04:19:45;;;;;;;23.35;6.20;;;12.20;99.90;;;;;;5035514;28;20036;-84
2022/05/26 04:22:23;;;;;;;28.65;6.10;;;12.10;99.90;;;;;;5035480;28;20041;-84
2022/05/26 04:24:51;;;;;;;19.88;3.88;;;12.10;99.90;;;;;;5034931;28;20064;-85
2022/05/26 04:27:19;;;;;;;18.00;3.95;;;12.10;99.90;;;;;;5035821;28;20091;-83
2022/05/26 04:29:44;;;;;;;20.75;3.30;;;12.10;99.90;;;;;;5034433;28;20158;-82
2022/05/26 04:32:10;;;;;;;18.38;4.32;;;12.20;99.90;;;;;;5035661;28;20041;-84
2022/05/26 04:34:37;;;;;;;20.60;4.18;;;12.10;99.90;;;;;;5035770;28;20696;-84
2022/05/26 04:37:04;;;;;;;14.10;2.80;;;12.10;99.90;;;;;;5036347;28;20073;-84
2022/05/26 04:39:30;;;;;;;15.63;2.92;;;12.20;99.90;;;;;;5036198;28;20056;-84
2022/05/26 04:42:03;;;;;;;17.17;4.03;;;12.20;99.90;;;;;;5017997;28;20048;-84
2022/05/26 04:44:32;;;;;;;15.98;3.55;;;12.40;99.90;;;;;;5036066;28;20041;-85
2022/05/26 04:46:58;;;;;;;17.50;4.20;;;12.90;99.90;;;;;;5035478;28;20038;-84
2022/05/26 04:49:24;;;;;;;15.18;3.05;;;13.80;99.90;;;;;;5035814;28;20057;-84
2022/05/26 04:51:50;;;;;;;10.88;2.42;;;14.30;99.90;;;;;;5035142;28;20041;-85
2022/05/26 04:54:16;;;;;;;11.40;2.55;;;14.60;99.90;;;;;;5035800;28;20072;-84
2022/05/26 04:56:42;;;;;;;11.55;2.70;;;15.10;99.90;;;;;;5035607;28;20037;-85
2022/05/26 04:59:08;;;;;;;17.92;3.15;;;15.40;99.90;;;;;;5035312;28;20542;-84
2022/05/26 05:01:34;;;;;;;8.13;1.90;;;15.20;99.90;;;;;;5034663;28;20057;-84
2022/05/26 05:04:03;;;;;;;13.35;2.78;;;15.30;99.90;;;;;;5035457;28;20103;-84
2022/05/26 05:06:28;;;;;;;11.85;2.13;;;15.60;99.90;;;;;;5034237;28;20085;-85
2022/05/26 05:08:54;;;;;;;10.90;1.98;;;15.50;99.90;;;;;;5034586;28;20045;-84
2022/05/26 05:11:20;;;;;;;8.15;1.67;;;15.10;99.90;;;;;;5033206;28;20049;-85
2022/05/26 05:13:45;;;;;;;11.40;2.60;;;14.90;99.90;;;;;;5034312;28;20488;-84
2022/05/26 05:16:27;;;;;;;11.05;3.22;;;15.20;99.90;;;;;;5034794;28;20059;-84
2022/05/26 05:18:54;;;;;;;11.38;2.95;;;15.70;99.90;;;;;;5034746;28;20095;-83
2022/05/26 05:21:28;;;;;;;8.45;2.00;;;15.70;99.90;;;;;;5034325;28;20524;-84
2022/05/26 05:24:03;;;;;;;12.55;2.20;;;15.80;99.90;;;;;;5034108;28;20390;-85
2022/05/26 05:26:34;;;;;;;6.70;1.90;;;16.40;99.90;;;;;;5034430;28;20053;-85
2022/05/26 05:29:04;;;;;;;8.50;1.92;;;17.20;99.90;;;;;;5034353;28;20038;-85
2022/05/26 05:31:39;;;;;;;8.95;1.50;;;17.70;99.90;;;;;;5034377;28;20049;-85
2022/05/26 05:34:12;;;;;;;7.38;1.35;;;18.10;99.90;;;;;;5034288;28;20049;-85
2022/05/26 05:36:38;;;;;;;6.90;1.95;;;18.10;99.90;;;;;;5034944;28;20425;-85
2022/05/26 05:39:04;;;;;;;7.60;1.80;;;17.40;99.90;;;;;;5034313;28;20049;-85
2022/05/26 05:41:33;;;;;;;7.20;1.60;;;16.80;99.90;;;;;;5034734;28;20056;-85
2022/05/26 05:44:00;;;;;;;10.88;1.77;;;16.40;99.90;;;;;;5038530;28;20041;-85
2022/05/26 05:46:33;;;;;;;8.23;1.63;;;16.10;99.90;;;;;;5038851;28;20048;-85
2022/05/26 05:49:00;;;;;;;8.95;1.90;;;15.90;99.90;;;;;;5038635;28;20087;-86
2022/05/26 05:51:25;;;;;;;10.70;1.77;;;15.60;99.90;;;;;;5038906;28;20049;-85
2022/05/26 05:53:51;;;;;;;7.53;1.77;;;15.50;99.90;;;;;;5038254;28;20462;-85
2022/05/26 05:56:17;;;;;;;6.90;1.52;;;15.60;99.90;;;;;;5037783;28;20041;-85
2022/05/26 05:58:42;;;;;;;8.45;1.30;;;15.90;99.90;;;;;;5037859;28;20107;-85
2022/05/26 06:01:08;;;;;;;9.57;1.95;;;16.40;99.90;;;;;;5037211;28;20049;-84
2022/05/26 06:03:35;;;;;;;5.70;1.45;;;16.40;99.90;;;;;;5037707;28;20061;-86
2022/05/26 06:06:02;;;;;;;8.38;1.80;;;17.00;99.90;;;;;;5038414;28;20037;-85
2022/05/26 06:08:28;;;;;;;10.45;1.50;;;17.80;99.90;;;;;;5038268;28;20059;-86
2022/05/26 06:10:54;;;;;;;11.00;1.42;;;18.80;99.90;;;;;;5036274;28;20128;-86
2022/05/26 06:13:19;;;;;;;8.85;2.03;;;19.20;99.90;;;;;;5036991;28;20128;-86
2022/05/26 06:15:46;;;;;;;9.55;1.73;;;19.80;99.90;;;;;;5038316;28;20049;-86
2022/05/26 06:18:16;;;;;;;7.53;1.30;;;20.40;91.00;;;;;;5039312;28;20056;-86
2022/05/26 06:20:42;;;;;;;9.05;1.50;;;20.70;69.70;;;;;;5037636;28;20041;-88
2022/05/26 06:23:08;;;;;;;9.88;1.58;;;20.70;59.50;;;;;;5038804;28;20056;-87
2022/05/26 06:25:34;;;;;;;8.40;1.73;;;21.00;60.00;;;;;;5038051;28;20105;-86
2022/05/26 06:30:43;;;;;;;6.75;1.15;;;21.10;39.20;;;;;;5038320;28;20076;-88
2022/05/26 06:38:41;;;;;;;8.05;1.35;;;21.60;38.60;;;;;;5038412;28;20060;-88
2022/05/26 06:43:53;;;;;;;10.55;1.73;;;22.20;29.50;;;;;;5038705;28;20440;-88
2022/05/26 06:46:19;;;;;;;7.35;1.88;;;22.60;24.70;;;;;;5038469;28;20072;-87
2022/05/26 06:48:45;;;;;;;11.20;1.27;;;22.60;15.30;;;;;;5037855;28;20038;-87
2022/05/26 06:51:12;;;;;;;7.53;1.40;;;22.90;24.90;;;;;;5038772;28;20506;-87
2022/05/26 06:53:38;;;;;;;7.85;1.00;;;23.00;13.10;;;;;;5053003;28;20512;-88
2022/05/26 06:56:06;;;;;;;6.60;1.20;;;22.50;12.90;;;;;;5038244;28;20056;-87
2022/05/26 06:58:33;;;;;;;9.38;1.17;;;21.40;26.50;;;;;;5038776;28;20052;-87
2022/05/26 07:00:58;;;;;;;7.03;1.40;;;20.70;29.60;;;;;;5038223;28;20436;-88
2022/05/26 07:03:25;;;;;;;5.70;1.55;;;20.20;42.00;;;;;;5038960;28;20045;-89
2022/05/26 07:05:51;;;;;;;7.50;1.02;;;20.20;39.90;;;;;;5039295;28;20129;-87
2022/05/26 07:08:17;;;;;;;9.45;1.60;;;19.70;51.00;;;;;;5039498;28;20073;-87
2022/05/26 07:10:45;;;;;;;5.25;0.98;;;19.60;52.50;;;;;;5039187;28;20525;-87
2022/05/26 07:13:11;;;;;;;7.28;1.15;;;19.20;57.60;;;;;;5036528;28;20146;-87
2022/05/26 07:15:37;;;;;;;4.43;0.90;;;19.00;56.60;;;;;;5035514;28;20072;-88
2022/05/26 07:18:04;;;;;;;8.43;1.58;;;19.00;60.60;;;;;;5036605;28;20509;-88
2022/05/26 07:20:31;;;;;;;3.78;1.25;;;19.60;47.40;;;;;;5035811;28;20048;-87
2022/05/26 07:22:56;;;;;;;4.60;1.17;;;19.80;46.10;;;;;;5035737;28;20048;-87
2022/05/26 07:25:22;;;;;;;4.57;0.80;;;19.60;47.00;;;;;;5035871;28;20041;-89
2022/05/26 07:27:48;;;;;;;6.20;1.10;;;19.40;53.10;;;;;;5035233;28;20073;-90
2022/05/26 07:30:13;;;;;;;5.30;1.23;;;19.70;56.90;;;;;;5035253;28;20051;-89
2022/05/26 07:32:39;;;;;;;10.23;1.52;;;20.00;49.00;;;;;;5035169;28;20046;-89
2022/05/26 07:35:05;;;;;;;5.22;0.77;;;20.00;47.30;;;;;;5036238;28;20091;-89
2022/05/26 07:43:02;;;;;;;5.60;0.70;;;19.90;43.30;;;;;;5045203;28;20049;-88
2022/05/26 07:45:28;;;;;;;3.75;0.80;;;19.40;36.10;;;;;;5046453;28;20042;-88
2022/05/26 07:47:54;;;;;;;4.72;1.13;;;19.30;44.10;;;;;;5045749;28;20102;-86
2022/05/26 07:50:20;;;;;;;5.93;1.20;;;19.60;45.50;;;;;;5046052;28;20069;-89
2022/05/26 07:52:50;;;;;;;7.53;1.00;;;19.80;48.20;;;;;;5039891;28;20563;-89
2022/05/26 07:55:18;;;;;;;4.22;1.27;;;19.90;33.60;;;;;;5034658;28;20081;-88
2022/05/26 07:57:44;;;;;;;4.57;1.02;;;20.10;28.40;;;;;;5035802;28;20033;-89
2022/05/26 08:00:10;;;;;;;4.28;1.00;;;19.90;26.80;;;;;;5036018;28;20053;-87
2022/05/26 08:02:36;;;;;;;8.73;0.82;;;19.90;29.20;;;;;;5036004;28;20049;-88
2022/05/26 08:05:02;;;;;;;3.90;0.73;;;19.80;22.80;;;;;;5035920;28;20042;-89
2022/05/26 08:07:28;;;;;;;1.67;0.60;;;19.80;24.40;;;;;;5036105;28;20515;-88
2022/05/26 08:09:53;;;;;;;8.70;1.20;;;20.30;22.80;;;;;;5035780;28;20041;-87
2022/05/26 08:12:19;;;;;;;5.50;1.00;;;21.00;25.00;;;;;;5036879;28;20076;-88
2022/05/26 08:14:45;;;;;;;4.80;1.00;;;21.90;15.40;;;;;;5036988;28;20053;-87
2022/05/26 08:17:18;;;;;;;8.25;1.00;;;21.90;10.90;;;;;;5036095;28;20073;-87
2022/05/26 08:19:43;;;;;;;6.15;0.95;;;22.10;6.30;;;;;;5018371;28;20049;-88
2022/05/26 08:22:09;;;;;;;4.28;0.73;;;22.70;3.00;;;;;;5034877;28;20057;-88
2022/05/26 08:24:35;;;;;;;3.78;1.00;;;23.00;7.10;;;;;;5034577;28;20038;-89
2022/05/26 08:27:01;;;;;;;4.65;1.33;;;22.70;1.90;;;;;;5034704;28;20041;-88
2022/05/26 08:29:26;;;;;;;5.30;1.08;;;22.40;3.50;;;;;;5034081;28;20059;-87
2022/05/26 08:31:52;;;;;;;5.40;1.73;;;21.70;6.90;;;;;;5034082;28;20053;-88
2022/05/26 08:34:18;;;;;;;5.00;1.17;;;19.70;12.60;;;;;;5034105;28;20051;-88
2022/05/26 08:36:44;;;;;;;3.03;0.75;;;21.40;13.70;;;;;;5034064;28;20103;-87
2022/05/26 08:39:09;;;;;;;6.50;1.00;;;20.70;16.20;;;;;;5034071;28;20057;-87
2022/05/26 08:41:41;;;;;;;4.30;0.80;;;21.00;9.50;;;;;;5032247;28;20048;-88
2022/05/26 08:44:36;;;;;;;6.28;1.15;;;20.40;6.20;;;;;;5033917;28;20049;-88
2022/05/26 08:47:08;;;;;;;6.45;1.05;;;20.10;12.40;;;;;;5033683;28;20045;-88
2022/05/26 08:49:57;;;;;;;7.47;1.10;;;20.90;11.40;;;;;;5033772;28;20083;-87
2022/05/26 08:52:39;;;;;;;11.20;1.05;;;21.20;2.90;;;;;;5033590;28;20478;-87
2022/05/26 08:55:37;;;;;;;4.65;1.52;;;21.40;4.10;;;;;;5033465;28;20482;-88
2022/05/26 08:58:14;;;;;;;3.47;0.57;;;22.10;1.00;;;;;;5033437;28;20045;-86
2022/05/26 09:00:42;;;;;;;3.20;0.80;;;22.20;1.00;;;;;;5033203;28;20580;-88
2022/05/26 09:03:27;;;;;;;4.60;0.90;;;22.30;1.00;;;;;;5034435;28;20057;-87
2022/05/26 09:06:05;;;;;;;3.00;1.02;;;22.50;1.00;;;;;;5034640;28;20119;-87
2022/05/26 09:14:38;;;;;;;7.43;1.00;;;21.50;1.00;;;;;;5040328;28;20045;-87
2022/05/26 09:17:10;;;;;;;7.72;1.10;;;21.50;1.00;;;;;;5040186;28;20115;-89
2022/05/26 09:19:44;;;;;;;11.98;0.95;;;21.10;1.00;;;;;;5040662;28;20080;-87
2022/05/26 09:22:29;;;;;;;4.90;1.20;;;21.50;1.00;;;;;;5040775;28;20092;-87
2022/05/26 09:24:56;;;;;;;3.35;0.85;;;22.20;1.00;;;;;;5042278;28;20502;-86
2022/05/26 09:27:37;;;;;;;9.32;1.15;;;22.50;1.00;;;;;;5042268;28;20057;-88
2022/05/26 09:30:24;;;;;;;5.88;1.08;;;22.50;1.00;;;;;;5041135;28;20049;-85
2022/05/26 09:32:51;;;;;;;5.97;1.00;;;22.00;1.00;;;;;;5040178;28;20045;-86
2022/05/26 09:35:19;;;;;;;5.75;1.00;;;21.10;1.00;;;;;;5038145;28;20045;-87
2022/05/26 09:37:50;;;;;;;5.82;1.48;;;20.20;1.00;;;;;;5037818;28;20057;-86
2022/05/26 09:40:27;;;;;;;4.90;0.73;;;20.00;1.00;;;;;;5037899;28;20037;-87
2022/05/26 09:43:20;;;;;;;10.73;1.40;;;20.00;3.70;;;;;;5038393;28;20073;-88
2022/05/26 09:45:55;;;;;;;9.18;1.58;;;20.40;4.50;;;;;;5037736;28;20049;-86
2022/05/26 09:48:36;;;;;;;5.25;0.82;;;20.90;1.10;;;;;;5037749;28;20047;-86
2022/05/26 09:51:24;;;;;;;3.58;0.88;;;21.40;1.00;;;;;;5037003;28;20055;-86
2022/05/26 09:53:52;;;;;;;6.13;1.00;;;21.40;1.00;;;;;;5037383;28;20143;-87
2022/05/26 09:56:40;;;;;;;4.30;0.70;;;21.50;1.00;;;;;;5037840;28;20048;-86
2022/05/26 09:59:30;;;;;;;2.95;0.65;;;21.20;1.00;;;;;;5037325;28;20103;-85
2022/05/26 10:02:01;;;;;;;4.55;0.95;;;20.80;1.00;;;;;;5039197;28;20375;-86
2022/05/26 10:04:43;;;;;;;2.78;0.40;;;20.60;1.00;;;;;;5038498;28;20112;-87
2022/05/26 10:07:23;;;;;;;4.90;1.50;;;20.70;1.00;;;;;;5038488;28;20054;-87
2022/05/26 10:10:01;;;;;;;5.00;0.73;;;20.90;1.00;;;;;;5037777;28;20102;-85
2022/05/26 10:12:35;;;;;;;3.40;0.80;;;20.90;1.00;;;;;;5038283;28;20037;-87
2022/05/26 10:15:27;;;;;;;3.40;0.68;;;21.10;1.00;;;;;;5037030;28;20064;-86
2022/05/26 10:18:19;;;;;;;2.70;0.47;;;21.50;1.00;;;;;;5035492;28;20478;-87
2022/05/26 10:21:23;;;;;;;3.20;0.90;;;21.40;1.00;;;;;;5037185;28;20182;-86
2022/05/26 10:24:26;;;;;;;3.90;0.75;;;21.20;1.00;;;;;;5036571;28;20045;-86
2022/05/26 10:27:00;;;;;;;3.60;0.68;;;21.30;1.00;;;;;;5036625;28;20045;-85
2022/05/26 10:29:45;;;;;;;3.03;0.63;;;21.20;1.00;;;;;;5037230;28;20041;-87
2022/05/26 10:32:36;;;;;;;5.32;1.02;;;21.90;1.00;;;;;;5035972;28;20057;-86
2022/05/26 10:35:25;;;;;;;8.43;1.15;;;22.20;1.00;;;;;;5036318;28;20502;-86
2022/05/26 10:37:51;;;;;;;3.00;0.68;;;22.40;1.00;;;;;;5036710;28;20056;-85
2022/05/26 10:40:29;;;;;;;4.68;1.02;;;22.70;1.00;;;;;;5036768;28;20045;-86
2022/05/26 10:43:33;;;;;;;5.00;1.00;;;22.50;1.00;;;;;;5035877;28;20172;-86
2022/05/26 10:46:00;;;;;;;1.73;0.70;;;22.50;1.00;;;;;;5034670;28;20062;-88
2022/05/26 10:48:42;;;;;;;3.60;0.80;;;22.40;1.00;;;;;;5036545;28;20053;-86
2022/05/26 10:51:18;;;;;;;3.92;0.98;;;22.40;1.00;;;;;;5037802;28;20041;-87
2022/05/26 10:54:07;;;;;;;6.70;1.20;;;22.50;1.00;;;;;;5036745;28;20523;-88
2022/05/26 10:56:53;;;;;;;6.18;1.40;;;22.60;1.00;;;;;;5035803;28;20076;-86
2022/05/26 10:59:29;;;;;;;5.63;1.13;;;23.00;1.00;;;;;;5036316;28;20423;-86
2022/05/26 11:02:02;;;;;;;5.40;1.08;;;23.10;1.00;;;;;;5035097;28;20053;-86
2022/05/26 11:04:35;;;;;;;5.55;1.23;;;23.30;1.00;;;;;;5036077;28;20041;-86
2022/05/26 11:07:10;;;;;;;6.18;1.15;;;23.20;1.00;;;;;;5051121;28;20042;-86
2022/05/26 11:09:46;;;;;;;5.20;1.15;;;22.80;1.00;;;;;;5035289;28;20037;-86
2022/05/26 11:12:17;;;;;;;4.25;1.50;;;22.20;1.00;;;;;;5035449;28;20045;-87
2022/05/26 11:17:58;;;;;;;4.38;1.00;;;22.00;1.00;;;;;;5034592;28;20068;-86
2022/05/26 11:20:34;;;;;;;7.10;1.10;;;22.70;1.00;;;;;;5035797;28;20041;-86
2022/05/26 11:23:03;;;;;;;9.05;1.10;;;23.40;1.00;;;;;;5036105;28;20049;-86
2022/05/26 11:25:45;;;;;;;6.78;1.00;;;23.50;1.00;;;;;;5052081;28;20450;-86
2022/05/26 11:28:33;;;;;;;9.75;1.77;;;22.90;1.00;;;;;;5036883;28;20099;-86
2022/05/26 11:37:00;;;;;;;6.53;1.45;;;21.00;9.10;;;;;;5036120;28;20053;-86
2022/05/26 11:39:38;;;;;;;5.53;1.25;;;20.90;8.20;;;;;;5033308;28;20057;-85
2022/05/26 11:42:34;;;;;;;3.67;1.20;;;20.60;12.30;;;;;;5034455;28;20049;-86
2022/05/26 11:45:17;;;;;;;6.57;0.90;;;20.60;15.50;;;;;;5033133;28;20057;-85
2022/05/26 11:48:06;;;;;;;6.03;1.48;;;20.70;11.00;;;;;;5034623;28;20041;-86
2022/05/26 11:50:46;;;;;;;7.22;1.50;;;20.80;7.30;;;;;;5034527;28;20119;-86
2022/05/26 11:53:35;;;;;;;6.18;1.10;;;21.30;4.80;;;;;;5034665;28;20048;-85
2022/05/26 11:56:23;;;;;;;3.25;0.82;;;21.70;1.40;;;;;;5034000;28;20045;-85
2022/05/26 11:59:23;;;;;;;6.60;1.63;;;21.70;1.00;;;;;;5033730;28;20054;-86
2022/05/26 12:01:59;;;;;;;6.00;1.25;;;22.30;1.00;;;;;;5032180;28;20132;-87
2022/05/26 12:04:27;;;;;;;4.10;0.90;;;22.30;1.00;;;;;;5034218;28;20068;-86
2022/05/26 12:06:59;;;;;;;3.05;0.85;;;21.60;1.00;;;;;;5033989;28;20049;-85
2022/05/26 12:09:37;;;;;;;8.50;0.90;;;21.20;1.00;;;;;;5033927;28;20053;-85
2022/05/26 12:12:17;;;;;;;5.47;0.93;;;21.80;1.00;;;;;;5033923;28;20042;-87
2022/05/26 12:14:46;;;;;;;3.40;0.98;;;23.00;1.00;;;;;;5033908;28;20416;-87
2022/05/26 12:17:29;;;;;;;7.38;1.25;;;23.50;1.00;;;;;;5033583;28;20052;-87
2022/05/26 12:19:57;;;;;;;5.60;1.02;;;23.80;1.00;;;;;;5034017;28;20379;-87
2022/05/26 12:22:31;;;;;;;8.45;1.27;;;24.00;1.00;;;;;;5033877;28;20045;-86
2022/05/26 12:25:00;;;;;;;7.28;1.38;;;23.70;1.00;;;;;;5033591;28;20056;-86
2022/05/26 12:27:56;;;;;;;4.65;1.23;;;23.20;1.00;;;;;;5033740;28;20053;-86
2022/05/26 12:31:00;;;;;;;5.43;1.45;;;22.50;1.00;;;;;;5033597;28;20049;-87
2022/05/26 12:33:40;;;;;;;7.38;1.52;;;22.50;1.00;;;;;;5033153;28;20496;-87
2022/05/26 12:36:24;;;;;;;6.57;1.02;;;21.90;1.00;;;;;;5033152;28;20041;-87
2022/05/26 12:38:58;;;;;;;8.20;1.38;;;21.60;1.00;;;;;;5033385;28;20049;-86
2022/05/26 12:41:49;;;;;;;5.30;1.08;;;21.10;1.00;;;;;;5033267;28;20124;-85
2022/05/26 12:44:27;;;;;;;11.00;1.30;;;20.90;1.00;;;;;;5033071;28;20486;-85
2022/05/26 12:47:15;;;;;;;10.00;1.42;;;20.80;1.80;;;;;;5048312;28;20057;-86
2022/05/26 12:50:19;;;;;;;6.63;1.55;;;20.70;2.30;;;;;;5033061;28;20049;-86
2022/05/26 12:52:57;;;;;;;4.65;1.60;;;20.20;4.40;;;;;;5032787;28;20144;-86
2022/05/26 12:55:33;;;;;;;9.13;1.17;;;19.90;10.60;;;;;;5033076;28;20139;-86
2022/05/26 12:58:10;;;;;;;4.07;0.80;;;19.90;13.20;;;;;;5033269;28;20041;-85
2022/05/26 13:00:37;;;;;;;3.58;1.10;;;20.10;12.50;;;;;;5032705;28;20045;-85
2022/05/26 13:03:28;;;;;;;8.15;1.33;;;20.00;8.80;;;;;;5031816;28;20053;-85
2022/05/26 13:06:07;;;;;;;5.63;1.73;;;19.70;10.70;;;;;;5032017;28;20108;-85
2022/05/26 13:09:01;;;;;;;9.15;2.03;;;19.50;17.20;;;;;;5032947;28;20049;-86
2022/05/26 13:11:33;;;;;;;7.65;1.45;;;19.80;18.80;;;;;;5032300;28;20191;-86
2022/05/26 13:14:06;;;;;;;5.40;1.13;;;20.70;12.50;;;;;;5033187;28;20052;-86
2022/05/26 13:16:39;;;;;;;4.00;0.98;;;21.00;7.80;;;;;;5032977;28;20057;-86
2022/05/26 13:19:15;;;;;;;6.05;0.85;;;21.50;1.00;;;;;;5048019;28;20092;-86
2022/05/26 13:21:44;;;;;;;4.32;1.25;;;20.70;1.00;;;;;;5033161;28;20335;-85
2022/05/26 13:24:20;;;;;;;6.88;1.55;;;20.50;1.20;;;;;;5032937;28;20382;-84
2022/05/26 13:26:55;;;;;;;4.72;1.02;;;20.00;4.30;;;;;;5032423;28;20350;-85
2022/05/26 13:29:21;;;;;;;8.88;1.45;;;19.60;7.30;;;;;;5032828;28;20049;-85
2022/05/26 13:34:43;;;;;;;9.32;1.92;;;19.50;14.70;;;;;;5032726;28;20060;-85
2022/05/26 13:37:23;;;;;;;7.35;1.80;;;19.40;13.70;;;;;;5032727;28;20064;-84
2022/05/26 13:40:15;;;;;;;6.93;1.67;;;19.30;18.10;;;;;;5032919;28;20099;-85
2022/05/26 13:42:44;;;;;;;5.80;1.73;;;19.30;23.80;;;;;;5031763;28;20033;-85
2022/05/26 13:45:28;;;;;;;9.27;2.08;;;19.70;21.20;;;;;;5032678;28;20088;-88
2022/05/26 13:48:30;;;;;;;7.53;1.75;;;19.80;16.40;;;;;;5032636;28;20077;-85
2022/05/26 13:51:12;;;;;;;9.52;2.17;;;19.80;17.20;;;;;;5032904;28;20079;-85
2022/05/26 13:53:40;;;;;;;6.43;1.35;;;19.60;18.70;;;;;;5032736;28;20041;-86
2022/05/26 13:56:07;;;;;;;7.53;1.40;;;19.60;19.70;;;;;;5032434;28;20057;-85
2022/05/26 13:58:34;;;;;;;6.50;1.30;;;19.60;19.90;;;;;;5032662;28;20042;-85